createdAt,value
2017-11-29T00:02:18.175Z,26.10
2017-11-29T00:04:48.586Z,26.10
2017-11-29T00:07:19.736Z,26.10
2017-11-29T00:09:51.339Z,26.20
2017-11-29T00:12:21.743Z,26.10
2017-11-29T00:14:52.146Z,26.20
2017-11-29T00:17:23.314Z,26.20
2017-11-29T00:19:53.702Z,26.20
2017-11-29T00:22:24.954Z,26.20
2017-11-29T00:24:56.137Z,26.20
2017-11-29T00:27:26.856Z,26.20
2017-11-29T00:29:58.049Z,26.20
2017-11-29T00:32:28.450Z,26.20
2017-11-29T00:34:58.879Z,26.30
2017-11-29T00:37:29.306Z,26.30
2017-11-29T00:40:00.258Z,26.30
2017-11-29T00:42:30.660Z,26.30
2017-11-29T00:45:01.084Z,26.30
2017-11-29T00:47:31.447Z,26.40
2017-11-29T00:50:01.873Z,26.40
2017-11-29T00:52:32.256Z,26.40
2017-11-29T00:55:02.641Z,26.40
2017-11-29T00:57:34.000Z,26.50
2017-11-29T01:00:05.153Z,26.50
2017-11-29T01:02:35.820Z,26.50
2017-11-29T01:05:06.278Z,26.60
2017-11-29T01:07:36.657Z,26.60
2017-11-29T01:10:07.433Z,26.70
2017-11-29T01:12:37.808Z,26.70
2017-11-29T01:15:08.439Z,26.70
2017-11-29T01:17:38.810Z,26.70
2017-11-29T01:20:09.240Z,26.70
2017-11-29T01:22:39.677Z,26.70
2017-11-29T01:25:10.175Z,26.70
2017-11-29T01:27:41.039Z,26.70
2017-11-29T01:30:12.267Z,26.70
2017-11-29T01:32:42.763Z,26.60
2017-11-29T01:35:13.210Z,26.60
2017-11-29T01:37:43.598Z,26.60
2017-11-29T01:40:14.468Z,26.60
2017-11-29T01:42:44.835Z,26.60
2017-11-29T01:45:15.685Z,26.50
2017-11-29T01:47:46.965Z,26.60
2017-11-29T01:50:17.357Z,26.60
2017-11-29T01:52:48.626Z,26.60
2017-11-29T01:55:19.044Z,26.60
2017-11-29T01:57:49.692Z,26.60
2017-11-29T02:00:20.396Z,26.60
2017-11-29T02:02:51.554Z,26.60
2017-11-29T02:05:21.945Z,26.50
2017-11-29T02:07:52.367Z,26.60
2017-11-29T02:10:22.742Z,26.60
2017-11-29T02:12:53.127Z,26.60
2017-11-29T02:15:23.907Z,26.60
2017-11-29T02:17:54.299Z,26.60
2017-11-29T02:20:25.541Z,26.80
2017-11-29T02:22:56.716Z,26.80
2017-11-29T02:25:27.697Z,26.80
2017-11-29T02:27:58.194Z,26.80
2017-11-29T02:30:28.609Z,26.80
2017-11-29T02:32:59.488Z,26.80
2017-11-29T02:35:30.074Z,26.80
2017-11-29T02:38:00.479Z,26.80
2017-11-29T02:40:42.292Z,27.00
2017-11-29T02:43:12.771Z,27.00
2017-11-29T02:45:43.315Z,27.00
2017-11-29T02:48:14.819Z,27.10
2017-11-29T02:50:46.087Z,27.10
2017-11-29T02:53:16.582Z,27.10
2017-11-29T02:55:47.025Z,27.10
2017-11-29T02:58:17.872Z,27.00
2017-11-29T03:00:48.908Z,27.00
2017-11-29T03:03:19.591Z,27.00
2017-11-29T03:05:50.811Z,26.90
2017-11-29T03:08:21.258Z,26.90
2017-11-29T03:10:52.558Z,26.90
2017-11-29T03:13:23.201Z,26.90
2017-11-29T03:15:53.911Z,26.90
2017-11-29T03:18:24.319Z,26.90
2017-11-29T03:20:54.754Z,26.90
2017-11-29T03:23:25.162Z,27.00
2017-11-29T03:25:55.584Z,27.10
2017-11-29T03:28:27.116Z,27.10
2017-11-29T03:30:57.552Z,27.10
2017-11-29T03:33:29.936Z,27.20
2017-11-29T03:36:01.103Z,27.30
2017-11-29T03:38:31.540Z,27.30
2017-11-29T03:41:01.958Z,27.40
2017-11-29T03:43:32.382Z,27.40
2017-11-29T03:46:03.242Z,27.40
2017-11-29T03:48:33.646Z,27.50
2017-11-29T03:51:04.093Z,27.60
2017-11-29T03:53:34.460Z,27.60
2017-11-29T03:56:05.645Z,27.60
2017-11-29T03:58:36.252Z,27.60
2017-11-29T04:01:07.455Z,27.60
2017-11-29T04:03:38.150Z,27.60
2017-11-29T04:06:09.297Z,27.60
2017-11-29T04:08:39.707Z,27.60
2017-11-29T04:11:10.115Z,27.70
2017-11-29T04:13:41.281Z,27.70
2017-11-29T04:16:12.115Z,27.70
2017-11-29T04:18:42.521Z,27.80
2017-11-29T04:21:13.921Z,27.80
2017-11-29T04:23:44.313Z,27.80
2017-11-29T04:26:14.726Z,27.80
2017-11-29T04:28:45.898Z,27.70
2017-11-29T04:31:16.401Z,27.70
2017-11-29T04:33:47.755Z,27.70
2017-11-29T04:36:18.892Z,27.60
2017-11-29T04:38:50.052Z,27.60
2017-11-29T04:41:20.440Z,27.60
2017-11-29T04:43:50.915Z,27.60
2017-11-29T04:46:21.672Z,27.60
2017-11-29T04:48:52.074Z,27.60
2017-11-29T04:51:22.828Z,27.60
2017-11-29T04:53:53.207Z,27.50
2017-11-29T04:56:24.398Z,27.50
2017-11-29T04:58:54.934Z,27.50
2017-11-29T05:01:25.381Z,27.40
2017-11-29T05:03:56.071Z,27.50
2017-11-29T05:06:26.518Z,27.50
2017-11-29T05:08:57.405Z,27.50
2017-11-29T05:11:28.907Z,27.50
2017-11-29T05:13:59.382Z,27.50
2017-11-29T05:16:30.574Z,27.60
2017-11-29T05:19:02.169Z,27.60
2017-11-29T05:21:32.676Z,27.60
2017-11-29T05:24:03.093Z,27.60
2017-11-29T05:26:33.608Z,27.60
2017-11-29T05:29:04.167Z,27.60
2017-11-29T05:31:34.536Z,27.60
2017-11-29T05:34:05.113Z,27.60
2017-11-29T05:36:35.814Z,27.60
2017-11-29T05:39:06.940Z,27.60
2017-11-29T05:41:37.365Z,27.50
2017-11-29T05:44:07.811Z,27.60
2017-11-29T05:46:38.245Z,27.60
2017-11-29T05:49:08.668Z,27.60
2017-11-29T05:51:40.319Z,27.60
2017-11-29T05:54:10.770Z,27.60
2017-11-29T05:56:41.199Z,27.70
2017-11-29T05:59:11.645Z,27.70
2017-11-29T06:01:42.088Z,27.60
2017-11-29T06:04:13.481Z,27.60
2017-11-29T06:06:43.895Z,27.60
2017-11-29T06:09:14.300Z,27.60
2017-11-29T06:11:45.490Z,27.70
2017-11-29T06:14:15.889Z,27.60
2017-11-29T06:16:46.314Z,27.70
2017-11-29T06:19:16.730Z,27.70
2017-11-29T06:21:48.325Z,27.70
2017-11-29T06:24:18.723Z,27.70
2017-11-29T06:26:49.142Z,27.80
2017-11-29T06:29:19.530Z,27.70
2017-11-29T06:31:49.930Z,27.70
2017-11-29T06:34:20.705Z,27.70
2017-11-29T06:36:51.922Z,27.60
2017-11-29T06:39:22.821Z,27.60
2017-11-29T06:41:53.207Z,27.60
2017-11-29T06:44:23.573Z,27.50
2017-11-29T06:46:54.045Z,27.50
2017-11-29T06:49:24.404Z,27.50
2017-11-29T06:51:56.165Z,27.50
2017-11-29T06:54:26.545Z,27.50
2017-11-29T06:56:56.956Z,27.50
2017-11-29T06:59:27.382Z,27.50
2017-11-29T07:01:57.797Z,27.50
2017-11-29T07:04:28.594Z,27.40
2017-11-29T07:06:59.879Z,27.40
2017-11-29T07:09:31.432Z,27.40
2017-11-29T07:12:01.850Z,27.40
2017-11-29T07:14:32.245Z,27.40
2017-11-29T07:17:03.420Z,27.40
2017-11-29T07:19:34.671Z,27.40
2017-11-29T07:22:05.248Z,27.40
2017-11-29T07:24:35.711Z,27.40
2017-11-29T07:27:06.239Z,27.30
2017-11-29T07:29:36.623Z,27.20
2017-11-29T07:32:07.026Z,27.20
2017-11-29T07:34:37.466Z,27.10
2017-11-29T07:37:07.910Z,27.10
2017-11-29T07:39:38.676Z,27.10
2017-11-29T07:42:09.095Z,27.10
2017-11-29T07:44:40.262Z,27.20
2017-11-29T07:47:10.675Z,27.20
2017-11-29T07:49:41.039Z,27.30
2017-11-29T07:52:11.796Z,27.30
2017-11-29T07:54:42.217Z,27.30
2017-11-29T07:57:12.789Z,27.40
2017-11-29T07:59:43.180Z,27.40
2017-11-29T08:02:13.815Z,27.30
2017-11-29T08:04:44.239Z,27.30
2017-11-29T08:07:14.708Z,27.30
2017-11-29T08:09:45.491Z,27.10
2017-11-29T08:12:16.012Z,27.20
2017-11-29T08:14:46.424Z,27.10
2017-11-29T08:17:17.142Z,27.00
2017-11-29T08:19:47.554Z,27.00
2017-11-29T08:22:17.939Z,27.00
2017-11-29T08:24:48.332Z,26.90
2017-11-29T08:27:18.778Z,26.90
2017-11-29T08:29:49.186Z,26.90
2017-11-29T08:32:19.614Z,27.10
2017-11-29T08:34:50.054Z,27.00
2017-11-29T08:37:20.478Z,27.00
2017-11-29T08:39:51.301Z,27.00
2017-11-29T08:42:21.729Z,27.00
2017-11-29T08:44:52.290Z,27.00
2017-11-29T08:47:22.819Z,27.00
2017-11-29T08:49:53.203Z,27.00
2017-11-29T08:52:23.607Z,26.90
2017-11-29T08:54:54.028Z,26.90
2017-11-29T08:57:24.698Z,26.90
2017-11-29T08:59:55.090Z,26.80
2017-11-29T09:02:25.551Z,26.80
2017-11-29T09:04:55.978Z,26.70
2017-11-29T09:07:26.357Z,26.60
2017-11-29T09:09:58.061Z,26.40
2017-11-29T09:12:28.771Z,26.30
2017-11-29T09:15:00.028Z,26.30
2017-11-29T09:17:30.522Z,26.20
2017-11-29T09:20:02.039Z,26.20
2017-11-29T09:22:33.090Z,26.20
2017-11-29T09:25:03.955Z,26.20
2017-11-29T09:27:35.316Z,26.20
2017-11-29T09:30:05.792Z,26.20
2017-11-29T09:32:36.288Z,26.20
2017-11-29T09:35:06.836Z,26.20
2017-11-29T09:37:37.291Z,26.20
2017-11-29T09:40:08.051Z,26.20
2017-11-29T09:42:39.557Z,26.20
2017-11-29T09:45:10.294Z,26.20
2017-11-29T09:47:40.737Z,26.20
2017-11-29T09:50:11.246Z,26.10
2017-11-29T09:52:41.811Z,26.20
2017-11-29T09:55:13.638Z,26.20
2017-11-29T09:57:44.598Z,26.20
2017-11-29T10:00:16.107Z,26.20
2017-11-29T10:02:46.564Z,26.20
2017-11-29T10:05:16.959Z,26.20
2017-11-29T10:07:47.855Z,26.20
2017-11-29T10:10:19.450Z,26.20
2017-11-29T10:12:50.007Z,26.20
2017-11-29T10:15:20.811Z,26.20
2017-11-29T10:17:51.204Z,26.20
2017-11-29T10:20:22.388Z,26.30
2017-11-29T10:22:53.073Z,26.20
2017-11-29T10:25:24.777Z,26.20
2017-11-29T10:27:55.750Z,26.30
2017-11-29T10:30:26.205Z,26.20
2017-11-29T10:32:57.928Z,26.20
2017-11-29T10:35:28.950Z,26.20
2017-11-29T10:37:59.982Z,26.20
2017-11-29T10:40:30.592Z,26.20
2017-11-29T10:43:01.567Z,26.20
2017-11-29T10:45:31.967Z,26.20
2017-11-29T10:48:02.450Z,26.20
2017-11-29T10:50:33.151Z,26.10
2017-11-29T10:53:03.697Z,26.10
2017-11-29T10:55:34.153Z,26.10
2017-11-29T10:58:04.864Z,26.10
2017-11-29T11:00:36.365Z,26.10
2017-11-29T11:03:07.707Z,26.10
2017-11-29T11:05:38.452Z,26.10
2017-11-29T11:08:09.367Z,26.10
2017-11-29T11:10:40.871Z,26.10
2017-11-29T11:13:11.528Z,26.10
2017-11-29T11:15:42.412Z,26.10
2017-11-29T11:18:13.423Z,26.10
2017-11-29T11:20:44.777Z,26.10
2017-11-29T11:23:15.210Z,26.10
2017-11-29T11:25:45.682Z,26.10
2017-11-29T11:28:16.907Z,26.10
2017-11-29T11:30:47.718Z,26.10
2017-11-29T11:33:18.870Z,26.10
2017-11-29T11:35:49.297Z,26.10
2017-11-29T11:38:20.031Z,26.10
2017-11-29T11:40:50.545Z,26.10
2017-11-29T11:43:21.105Z,26.10
2017-11-29T11:45:52.772Z,26.00
2017-11-29T11:48:23.232Z,26.10
2017-11-29T11:50:54.515Z,26.00
2017-11-29T11:53:25.274Z,26.10
2017-11-29T11:55:55.698Z,26.00
2017-11-29T11:58:26.829Z,26.10
2017-11-29T12:00:57.583Z,26.10
2017-11-29T12:03:28.614Z,26.10
2017-11-29T12:05:59.042Z,26.10
2017-11-29T12:08:29.504Z,26.10
2017-11-29T12:10:59.951Z,26.10
2017-11-29T12:13:31.207Z,26.10
2017-11-29T12:16:03.633Z,26.10
2017-11-29T12:18:34.376Z,26.10
2017-11-29T12:21:04.809Z,26.10
2017-11-29T12:23:35.209Z,26.20
2017-11-29T12:26:05.703Z,26.10
2017-11-29T12:28:36.908Z,26.10
2017-11-29T12:31:07.336Z,26.10
2017-11-29T12:33:38.064Z,26.20
2017-11-29T12:36:08.452Z,26.20
2017-11-29T12:38:38.983Z,26.20
2017-11-29T12:41:09.397Z,26.20
2017-11-29T12:43:39.868Z,26.20
2017-11-29T12:46:10.737Z,26.20
2017-11-29T12:48:52.467Z,26.30
2017-11-29T12:51:23.099Z,26.30
2017-11-29T12:53:53.533Z,26.30
2017-11-29T12:56:24.234Z,26.30
2017-11-29T12:58:55.011Z,26.30
2017-11-29T13:01:25.460Z,26.30
2017-11-29T13:03:57.140Z,26.40
2017-11-29T13:06:28.320Z,26.40
2017-11-29T13:08:58.752Z,26.40
2017-11-29T13:11:29.174Z,26.40
2017-11-29T13:13:59.635Z,26.40
2017-11-29T13:16:30.479Z,26.40
2017-11-29T13:19:00.859Z,26.40
2017-11-29T13:21:31.273Z,26.40
2017-11-29T13:24:01.717Z,26.40
2017-11-29T13:26:32.143Z,26.40
2017-11-29T13:29:02.978Z,26.40
2017-11-29T13:31:33.364Z,26.40
2017-11-29T13:34:05.078Z,26.40
2017-11-29T13:36:35.502Z,26.30
2017-11-29T13:39:06.185Z,26.40
2017-11-29T13:41:37.387Z,26.40
2017-11-29T13:44:07.850Z,26.30
2017-11-29T13:46:39.563Z,26.40
2017-11-29T13:49:09.980Z,26.40
2017-11-29T13:51:40.429Z,26.40
2017-11-29T13:54:10.824Z,26.40
2017-11-29T13:56:41.236Z,26.40
2017-11-29T13:59:11.678Z,26.40
2017-11-29T14:01:42.108Z,26.30
2017-11-29T14:04:12.955Z,26.30
2017-11-29T14:06:43.364Z,26.30
2017-11-29T14:09:13.795Z,26.30
2017-11-29T14:11:44.501Z,26.30
2017-11-29T14:14:14.987Z,26.30
2017-11-29T14:16:45.806Z,26.30
2017-11-29T14:19:16.306Z,26.20
2017-11-29T14:21:47.410Z,26.20
2017-11-29T14:24:18.111Z,26.20
2017-11-29T14:26:48.791Z,26.20
2017-11-29T14:29:20.186Z,26.20
2017-11-29T14:31:50.610Z,26.20
2017-11-29T14:34:22.088Z,26.20
2017-11-29T14:36:52.511Z,26.20
2017-11-29T14:39:22.976Z,26.20
2017-11-29T14:41:54.437Z,26.20
2017-11-29T14:44:25.172Z,26.20
2017-11-29T14:46:55.568Z,26.20
2017-11-29T14:49:26.023Z,26.20
2017-11-29T14:51:56.771Z,26.20
2017-11-29T14:54:27.214Z,26.20
2017-11-29T14:56:58.995Z,26.20
2017-11-29T14:59:29.453Z,26.20
2017-11-29T15:02:00.658Z,26.10
2017-11-29T15:04:31.354Z,26.10
2017-11-29T15:07:01.990Z,26.10
2017-11-29T15:09:33.245Z,26.10
2017-11-29T15:12:03.746Z,26.00
2017-11-29T15:14:34.220Z,26.00
2017-11-29T15:17:04.608Z,25.90
2017-11-29T15:19:35.093Z,26.00
2017-11-29T15:22:05.688Z,26.00
2017-11-29T15:24:36.188Z,26.00
2017-11-29T15:27:06.717Z,26.00
2017-11-29T15:29:37.913Z,26.00
2017-11-29T15:32:08.474Z,26.00
2017-11-29T15:34:40.224Z,26.00
2017-11-29T15:37:10.604Z,26.00
2017-11-29T15:39:41.579Z,26.10
2017-11-29T15:42:12.101Z,26.10
2017-11-29T15:44:42.529Z,26.10
2017-11-29T15:47:13.032Z,26.10
2017-11-29T15:49:43.461Z,26.10
2017-11-29T15:52:14.548Z,26.10
2017-11-29T15:54:45.980Z,26.20
2017-11-29T15:57:16.371Z,26.20
2017-11-29T15:59:46.996Z,26.20
2017-11-29T16:02:17.501Z,26.20
2017-11-29T16:04:47.958Z,26.20
2017-11-29T16:07:18.332Z,26.20
2017-11-29T16:09:49.131Z,26.10
2017-11-29T16:12:19.576Z,26.10
2017-11-29T16:14:49.999Z,26.10
2017-11-29T16:17:20.495Z,26.10
2017-11-29T16:19:50.955Z,26.10
2017-11-29T16:22:21.962Z,26.10
2017-11-29T16:24:52.599Z,26.10
2017-11-29T16:27:23.631Z,26.10
2017-11-29T16:29:54.223Z,26.10
2017-11-29T16:32:25.539Z,26.10
2017-11-29T16:34:56.014Z,26.10
2017-11-29T16:37:27.408Z,26.10
2017-11-29T16:39:58.100Z,26.10
2017-11-29T16:42:28.768Z,26.10
2017-11-29T16:44:59.404Z,26.10
2017-11-29T16:47:29.841Z,26.10
2017-11-29T16:50:01.069Z,26.10
2017-11-29T16:52:31.554Z,26.00
2017-11-29T16:55:02.807Z,26.10
2017-11-29T16:57:33.504Z,26.00
2017-11-29T17:00:03.917Z,26.10
2017-11-29T17:02:34.320Z,26.10
2017-11-29T17:05:04.836Z,26.10
2017-11-29T17:07:35.286Z,26.10
2017-11-29T17:10:06.155Z,26.10
2017-11-29T17:12:37.374Z,26.10
2017-11-29T17:15:07.906Z,26.10
2017-11-29T17:17:38.391Z,26.10
2017-11-29T17:20:10.033Z,26.10
2017-11-29T17:22:41.551Z,26.10
2017-11-29T17:25:12.011Z,26.10
2017-11-29T17:27:43.702Z,26.10
2017-11-29T17:30:14.139Z,26.10
2017-11-29T17:32:44.809Z,26.10
2017-11-29T17:35:15.225Z,26.10
2017-11-29T17:37:45.700Z,26.00
2017-11-29T17:40:16.203Z,26.00
2017-11-29T17:42:47.385Z,26.00
2017-11-29T17:45:17.850Z,25.90
2017-11-29T17:47:48.268Z,26.00
2017-11-29T17:50:18.738Z,26.00
2017-11-29T17:52:49.162Z,26.00
2017-11-29T17:55:20.377Z,25.90
2017-11-29T17:57:51.228Z,25.90
2017-11-29T18:00:22.486Z,25.90
2017-11-29T18:02:53.687Z,26.00
2017-11-29T18:05:24.154Z,25.90
2017-11-29T18:07:54.774Z,25.90
2017-11-29T18:10:25.396Z,25.90
2017-11-29T18:12:55.803Z,25.90
2017-11-29T18:15:26.615Z,25.90
2017-11-29T18:17:57.045Z,25.90
2017-11-29T18:20:27.472Z,25.90
2017-11-29T18:22:57.910Z,25.90
2017-11-29T18:25:28.347Z,25.90
2017-11-29T18:27:59.306Z,25.90
2017-11-29T18:30:29.757Z,25.90
2017-11-29T18:33:00.200Z,25.80
2017-11-29T18:35:30.641Z,25.80
2017-11-29T18:38:01.074Z,25.80
2017-11-29T18:40:31.847Z,25.80
2017-11-29T18:43:02.261Z,25.70
2017-11-29T18:45:33.269Z,25.70
2017-11-29T18:48:03.693Z,25.70
2017-11-29T18:50:34.202Z,25.70
2017-11-29T18:53:05.396Z,25.70
2017-11-29T18:55:35.839Z,25.70
2017-11-29T18:58:06.749Z,25.70
2017-11-29T19:00:37.192Z,25.70
2017-11-29T19:03:07.637Z,25.70
2017-11-29T19:05:38.060Z,25.60
2017-11-29T19:08:08.490Z,25.60
2017-11-29T19:10:38.918Z,25.60
2017-11-29T19:13:09.348Z,25.60
2017-11-29T19:15:41.094Z,25.60
2017-11-29T19:18:11.657Z,25.50
2017-11-29T19:20:42.897Z,25.40
2017-11-29T19:23:14.080Z,25.40
2017-11-29T19:25:44.496Z,25.40
2017-11-29T19:28:14.966Z,25.40
2017-11-29T19:30:45.403Z,25.40
2017-11-29T19:33:15.988Z,25.40
2017-11-29T19:35:46.450Z,25.40
2017-11-29T19:38:16.981Z,25.40
2017-11-29T19:40:48.254Z,25.40
2017-11-29T19:43:19.497Z,25.40
2017-11-29T19:45:50.956Z,25.40
2017-11-29T19:48:22.130Z,25.40
2017-11-29T19:50:52.601Z,25.40
2017-11-29T19:53:23.052Z,25.40
2017-11-29T19:55:54.259Z,25.40
2017-11-29T19:58:25.139Z,25.40
2017-11-29T20:00:56.603Z,25.40
2017-11-29T20:03:27.416Z,25.40
2017-11-29T20:05:58.879Z,25.40
2017-11-29T20:08:29.331Z,25.40
2017-11-29T20:10:59.820Z,25.40
2017-11-29T20:13:31.048Z,25.40
2017-11-29T20:16:02.020Z,25.40
2017-11-29T20:18:32.443Z,25.40
2017-11-29T20:21:03.106Z,25.50
2017-11-29T20:23:33.530Z,25.50
2017-11-29T20:26:03.986Z,25.50
2017-11-29T20:28:34.920Z,25.50
2017-11-29T20:31:05.367Z,25.40
2017-11-29T20:33:36.305Z,25.40
2017-11-29T20:36:06.709Z,25.40
2017-11-29T20:38:37.104Z,25.40
2017-11-29T20:41:07.567Z,25.40
2017-11-29T20:43:38.051Z,25.40
2017-11-29T20:46:08.943Z,25.40
2017-11-29T20:48:39.531Z,25.40
2017-11-29T20:51:09.955Z,25.40
2017-11-29T20:53:40.359Z,25.40
2017-11-29T20:56:10.867Z,25.40
2017-11-29T20:58:42.183Z,25.40
2017-11-29T21:01:12.618Z,25.40
2017-11-29T21:03:43.484Z,25.50
2017-11-29T21:06:14.633Z,25.40
2017-11-29T21:08:45.810Z,25.40
2017-11-29T21:11:16.461Z,25.40
2017-11-29T21:13:47.112Z,25.40
2017-11-29T21:16:17.989Z,25.40
2017-11-29T21:18:49.239Z,25.40
2017-11-29T21:21:19.815Z,25.40
2017-11-29T21:23:50.291Z,25.40
2017-11-29T21:26:20.744Z,25.40
2017-11-29T21:28:51.319Z,25.40
2017-11-29T21:31:21.756Z,25.40
2017-11-29T21:33:53.149Z,25.40
2017-11-29T21:36:23.623Z,25.40
2017-11-29T21:38:54.917Z,25.40
2017-11-29T21:41:25.357Z,25.40
2017-11-29T21:43:55.803Z,25.40
2017-11-29T21:46:26.322Z,25.40
2017-11-29T21:48:56.719Z,25.40
2017-11-29T21:51:27.481Z,25.40
2017-11-29T21:53:58.160Z,25.40
2017-11-29T21:56:29.479Z,25.30
2017-11-29T21:58:59.952Z,25.30
2017-11-29T22:01:30.469Z,25.30
2017-11-29T22:04:02.109Z,25.40
2017-11-29T22:06:33.312Z,25.40
2017-11-29T22:09:03.894Z,25.30
2017-11-29T22:11:35.258Z,25.30
2017-11-29T22:14:06.422Z,25.30
2017-11-29T22:16:37.216Z,25.30
2017-11-29T22:19:08.424Z,25.30
2017-11-29T22:21:40.195Z,25.40
2017-11-29T22:24:10.681Z,25.30
2017-11-29T22:26:42.393Z,25.30
2017-11-29T22:29:20.162Z,25.40
2017-11-29T22:31:50.641Z,25.40
2017-11-29T22:34:22.369Z,25.40
2017-11-29T22:36:52.796Z,25.40
2017-11-29T22:39:23.502Z,25.40
2017-11-29T22:41:53.903Z,25.40
2017-11-29T22:44:24.321Z,25.40
2017-11-29T22:46:54.750Z,25.40
2017-11-29T22:49:25.158Z,25.40
2017-11-29T22:51:56.578Z,25.40
2017-11-29T22:54:27.018Z,25.40
2017-11-29T22:56:57.512Z,25.50
2017-11-29T22:59:28.349Z,25.50
2017-11-29T23:01:58.810Z,25.50
2017-11-29T23:04:29.537Z,25.40
2017-11-29T23:07:01.161Z,25.50
2017-11-29T23:09:31.854Z,25.40
2017-11-29T23:12:03.117Z,25.40
2017-11-29T23:14:33.547Z,25.40
2017-11-29T23:17:04.106Z,25.40
2017-11-29T23:19:34.793Z,25.40
2017-11-29T23:22:06.478Z,25.40
2017-11-29T23:24:36.877Z,25.40
2017-11-29T23:27:08.164Z,25.40
2017-11-29T23:29:38.570Z,25.40
2017-11-29T23:32:08.998Z,25.40
2017-11-29T23:34:39.415Z,25.50
2017-11-29T23:37:09.864Z,25.40
2017-11-29T23:39:40.665Z,25.50
2017-11-29T23:42:11.902Z,25.60
2017-11-29T23:44:43.074Z,25.60
2017-11-29T23:47:13.467Z,25.50
2017-11-29T23:49:44.609Z,25.60
2017-11-29T23:52:16.255Z,25.60
2017-11-29T23:54:46.639Z,25.60
2017-11-29T23:57:17.016Z,25.60
2017-11-29T23:59:48.163Z,25.60
